Nearby METAR Reports

This page may be slow to load as it queries the National Weather Service for data.

KBIS - Bismarck, North Dakota, USA
Distance from station: S 10mi, 15km
Updated: Sat, 24-Aug-2019 9:52pm CDT
Clear
Clear
 Wind from S
Wind: S 22 mph , 35 km/h, Gust: 33 mph , 54 km/h
Temperature: 70°F , 21°C
Dew Point: 61°F , 16°C
Humidity: 73%
Barometer: 29.84 inHg , 1010.5 hPa
Clouds: Clear
Visibility: 10 miles , 16 km
2019/08/25 02:52 KBIS 250252Z 17019G29KT 10SM CLR 21/16 A2984 RMK AO2 PK WND 17029/0243 SLP098 T02110161 55002
KDIK - Dickinson, North Dakota, USA
Distance from station: W 95mi, 154km
Updated: Sat, 24-Aug-2019 9:56pm CDT
Few Clouds
Few Clouds
 Wind from SSE
Wind: SSE 16 mph , 26 km/h
Temperature: 64°F , 18°C
Dew Point: 55°F , 13°C
Humidity: 73%
Barometer: 29.78 inHg , 1008.5 hPa
Clouds: Few Clouds
Visibility: 10 miles , 16 km
Cloud details: Few Clouds 4800 ft
Few Clouds 11000 ft
2019/08/25 02:56 KDIK 250256Z AUTO 15014KT 10SM FEW048 FEW110 18/13 A2978 RMK AO2 PK WND 18031/0227 LTG DSNT NE AND SE RAE49 TSB11E50 SLP072 P0001 60001 T01830133 50003
 
KISN - Williston, North Dakota, USA
Distance from station: NNW 2mi, 2km
Updated: Sat, 24-Aug-2019 9:52pm CDT
Clear
Clear
 Wind from W
Wind: W 3 mph , 6 km/h
Temperature: 70°F , 21°C
Dew Point: 64°F , 18°C
Humidity: 83%
Barometer: 29.72 inHg , 1006.4 hPa
Clouds: Clear
Visibility: 10 miles , 16 km
2019/08/25 02:52 KISN 250252Z AUTO 28003KT 10SM CLR 21/18 A2972 RMK AO2 SLP053 T02110178 55000 $
KFAR - Fargo, North Dakota, USA
Distance from station: NNW 4mi, 7km
Updated: Sat, 24-Aug-2019 9:53pm CDT
Clear
Clear
 Wind from SSE
Wind: SSE 17 mph , 28 km/h, Gust: 29 mph , 46 km/h
Temperature: 70°F , 21°C
Dew Point: 55°F , 13°C
Humidity: 60%
Barometer: 29.98 inHg , 1015.2 hPa
Clouds: Clear
Visibility: 10 miles , 16 km
2019/08/25 02:53 KFAR 250253Z 15015G25KT 10SM CLR 21/13 A2998 RMK AO2 PK WND 15027/0224 SLP149 T02060133 56003
 
KGFK - Grand Forks, North Dakota, USA
Distance from station: NNW 76mi, 123km
Updated: Sat, 24-Aug-2019 9:53pm CDT
Partly cloudy
Partly cloudy
 Wind from SSE
Wind: SSE 20 mph , 31 km/h, Gust: 30 mph , 48 km/h
Temperature: 72°F , 22°C
Dew Point: 55°F , 13°C
Humidity: 57%
Barometer: 29.93 inHg , 1013.5 hPa
Clouds: Partly cloudy
Visibility: 10 miles , 16 km
Cloud details: Partly cloudy 18000 ft
2019/08/25 02:53 KGFK 250253Z 16017G26KT 10SM SCT180 22/13 A2993 RMK AO2 PK WND 15028/0228 SLP133 T02170133 53002
KMOT - Minot, North Dakota, USA
Distance from station: E 109mi, 175km
Updated: Sat, 24-Aug-2019 10:12pm CDT
Nearby thunderstorm, Overcast
Nearby thunderstorm, Overcast
 Wind from WNW
Wind: WNW 12 mph , 19 km/h, Gust: 20 mph , 31 km/h
Temperature: 70°F , 21°C
Dew Point: 61°F , 16°C
Humidity: 73%
Barometer: 29.78 inHg , 1008.5 hPa
Summary: Nearby Thunderstorm
Clouds: Overcast
Visibility: 10 miles , 16 km
Cloud details: Mostly cloudy 2900 ft
Overcast 4200 ft
2019/08/25 03:12 KMOT 250312Z AUTO 29010G17KT 10SM VCTS BKN029 OVC042 21/16 A2978 RMK AO2 PK WND 27034/0255 WSHFT 0241 LTG DSNT N AND W T02060156